Time;durP1;ratioP1;P1;durP2;ratioP2;P2;SDS_P1;SDS_P2;PMS_P1;PMS_P2;Temp;Humidity;BMP_temperature;BMP_pressure;BME280_temperature;BME280_humidity;BME280_pressure;Samples;Min_cycle;Max_cycle;Signal;HPM_P1;HPM_P2
2023/08/27 00:01:13;;;;;;;7.20;3.60;;;19.20;99.90;;;;;;5042226;28;20440;-60
2023/08/27 00:03:40;;;;;;;4.17;3.53;;;19.20;99.90;;;;;;5041785;28;20471;-60
2023/08/27 00:06:07;;;;;;;4.43;3.50;;;19.10;99.90;;;;;;5041796;28;20464;-60
2023/08/27 00:08:35;;;;;;;8.73;2.93;;;19.10;99.90;;;;;;5041391;28;20730;-60
2023/08/27 00:11:04;;;;;;;6.10;3.43;;;19.10;99.90;;;;;;5041669;28;20447;-60
2023/08/27 00:13:31;;;;;;;3.57;3.27;;;19.00;99.90;;;;;;5041540;28;20506;-60
2023/08/27 00:15:58;;;;;;;5.70;3.17;;;19.00;99.90;;;;;;5041929;28;20925;-59
2023/08/27 00:18:25;;;;;;;4.83;3.40;;;19.00;99.90;;;;;;5041643;28;20487;-60
2023/08/27 00:20:51;;;;;;;6.20;4.47;;;18.90;99.90;;;;;;5042321;28;20472;-59
2023/08/27 00:23:18;;;;;;;4.80;4.23;;;18.90;99.90;;;;;;5042123;28;20462;-59
2023/08/27 00:25:46;;;;;;;5.10;3.87;;;18.90;99.90;;;;;;5042131;28;20479;-59
2023/08/27 00:28:16;;;;;;;4.90;4.40;;;18.80;99.90;;;;;;5043102;28;20478;-58
2023/08/27 00:30:43;;;;;;;6.27;4.10;;;18.80;99.90;;;;;;5045520;28;20523;-61
2023/08/27 00:33:10;;;;;;;5.83;2.93;;;18.80;99.90;;;;;;5045722;28;20511;-61
2023/08/27 00:35:37;;;;;;;3.43;3.13;;;18.70;99.90;;;;;;5045279;28;20582;-60
2023/08/27 00:38:05;;;;;;;7.00;3.00;;;18.70;99.90;;;;;;5045428;28;20514;-60
2023/08/27 00:40:32;;;;;;;6.57;4.13;;;18.70;99.90;;;;;;5045176;28;20504;-61
2023/08/27 00:43:02;;;;;;;10.30;3.20;;;18.70;99.90;;;;;;5044588;28;20834;-61
2023/08/27 00:45:29;;;;;;;3.50;3.20;;;18.40;99.90;;;;;;5045801;28;20918;-61
2023/08/27 00:47:56;;;;;;;11.53;4.10;;;18.60;99.90;;;;;;5045838;28;20477;-61
2023/08/27 00:50:25;;;;;;;5.10;3.60;;;18.60;99.90;;;;;;5045653;28;20496;-62
2023/08/27 00:52:52;;;;;;;3.73;3.13;;;18.50;99.90;;;;;;5045927;28;20448;-59
2023/08/27 00:55:22;;;;;;;5.70;3.50;;;18.50;99.90;;;;;;5045310;28;20571;-60
2023/08/27 00:57:51;;;;;;;5.40;3.70;;;18.50;99.90;;;;;;5045425;28;20503;-59
2023/08/27 01:00:20;;;;;;;5.70;3.80;;;18.50;99.90;;;;;;5045161;28;20510;-60
2023/08/27 01:02:48;;;;;;;3.87;3.47;;;18.50;99.90;;;;;;5045171;28;20503;-60
2023/08/27 01:05:15;;;;;;;6.17;4.00;;;18.50;99.90;;;;;;5045057;28;20472;-59
2023/08/27 01:07:49;;;;;;;4.40;3.40;;;18.40;99.90;;;;;;5045702;28;20456;-61
2023/08/27 01:10:24;;;;;;;4.30;3.83;;;18.40;99.90;;;;;;5044974;28;20555;-60
2023/08/27 01:13:00;;;;;;;5.20;3.27;;;18.50;99.90;;;;;;5045219;28;20429;-61
2023/08/27 01:15:30;;;;;;;5.87;3.87;;;18.40;99.90;;;;;;5044776;28;20484;-59
2023/08/27 01:17:58;;;;;;;6.00;4.10;;;18.40;99.90;;;;;;5044320;28;20500;-61
2023/08/27 01:20:25;;;;;;;3.87;3.50;;;18.40;99.90;;;;;;5044823;28;21226;-60
2023/08/27 01:22:53;;;;;;;4.23;3.50;;;18.40;99.90;;;;;;5044464;28;20484;-60
2023/08/27 01:25:24;;;;;;;4.47;3.40;;;18.40;99.90;;;;;;5046080;28;20492;-60
2023/08/27 01:27:56;;;;;;;5.43;3.90;;;18.40;99.90;;;;;;5044251;28;20484;-57
2023/08/27 01:30:27;;;;;;;4.97;4.47;;;18.40;99.90;;;;;;5043837;28;20433;-61
2023/08/27 01:33:02;;;;;;;5.30;4.30;;;18.30;99.90;;;;;;5040090;28;20530;-61
2023/08/27 01:35:30;;;;;;;5.97;3.93;;;18.30;99.90;;;;;;5040246;28;20511;-60
2023/08/27 01:37:59;;;;;;;4.87;3.63;;;18.30;99.90;;;;;;5040729;28;20468;-60
2023/08/27 01:40:27;;;;;;;5.47;3.63;;;18.30;99.90;;;;;;5038795;28;20508;-59
2023/08/27 01:42:54;;;;;;;5.07;3.43;;;18.30;99.90;;;;;;5040542;28;20455;-60
2023/08/27 01:45:21;;;;;;;4.67;3.77;;;18.30;99.90;;;;;;5040164;28;20467;-59
2023/08/27 01:47:48;;;;;;;4.30;3.50;;;18.40;99.90;;;;;;5040183;28;20508;-60
2023/08/27 01:50:15;;;;;;;7.33;4.00;;;18.40;99.90;;;;;;5040579;28;20476;-60
2023/08/27 01:52:42;;;;;;;5.20;3.60;;;18.40;99.90;;;;;;5040329;28;20514;-61
2023/08/27 01:55:10;;;;;;;4.53;3.60;;;18.40;99.90;;;;;;5039642;28;20525;-59
2023/08/27 01:57:37;;;;;;;5.03;3.60;;;18.50;99.90;;;;;;5040031;28;20570;-59
2023/08/27 02:00:08;;;;;;;9.17;4.20;;;18.50;99.90;;;;;;5040043;28;20464;-61
2023/08/27 02:02:38;;;;;;;4.87;2.90;;;18.50;99.90;;;;;;5040084;28;20737;-59
2023/08/27 02:05:05;;;;;;;6.70;3.57;;;18.50;99.90;;;;;;5039647;28;20480;-61
2023/08/27 02:07:34;;;;;;;5.63;3.33;;;18.50;99.90;;;;;;5040234;28;20444;-61
2023/08/27 02:10:01;;;;;;;3.47;3.17;;;18.50;99.90;;;;;;5039438;28;20541;-61
2023/08/27 02:12:29;;;;;;;4.63;3.40;;;18.40;99.90;;;;;;5039217;28;20495;-60
2023/08/27 02:14:56;;;;;;;5.23;3.73;;;18.30;99.90;;;;;;5039270;28;20444;-60
2023/08/27 02:17:23;;;;;;;4.53;3.67;;;18.30;99.90;;;;;;5039339;28;20546;-62
2023/08/27 02:19:50;;;;;;;4.27;3.53;;;18.30;99.90;;;;;;5039677;28;20804;-63
2023/08/27 02:22:17;;;;;;;4.33;3.23;;;18.20;99.90;;;;;;5038876;28;20802;-61
2023/08/27 02:24:44;;;;;;;3.20;2.90;;;18.20;99.90;;;;;;5039566;28;20944;-61
2023/08/27 02:27:14;;;;;;;4.60;4.17;;;18.30;99.90;;;;;;5039415;28;20522;-60
2023/08/27 02:29:42;;;;;;;4.47;3.67;;;18.30;99.90;;;;;;5020168;28;20532;-61
2023/08/27 02:32:09;;;;;;;4.80;3.40;;;18.50;99.90;;;;;;5019320;28;20540;-62
2023/08/27 02:34:36;;;;;;;7.00;3.87;;;18.30;99.90;;;;;;5019632;28;20515;-61
2023/08/27 02:37:03;;;;;;;5.17;3.20;;;18.20;99.90;;;;;;5019035;28;20958;-59
2023/08/27 02:39:32;;;;;;;3.80;3.20;;;18.20;99.90;;;;;;5019705;28;20472;-60
2023/08/27 02:41:58;;;;;;;6.27;3.80;;;18.30;99.90;;;;;;5019293;28;20520;-60
2023/08/27 02:44:25;;;;;;;4.03;3.67;;;18.30;99.90;;;;;;5019495;28;20505;-60
2023/08/27 02:46:53;;;;;;;5.00;3.77;;;18.30;99.90;;;;;;5019182;28;20466;-59
2023/08/27 02:49:20;;;;;;;7.30;3.67;;;18.30;99.90;;;;;;5019484;28;20429;-60
2023/08/27 02:51:47;;;;;;;4.77;3.93;;;18.30;99.90;;;;;;5032273;28;20782;-59
2023/08/27 02:54:14;;;;;;;4.80;3.37;;;18.30;99.90;;;;;;5038842;28;20544;-61
2023/08/27 02:56:41;;;;;;;5.40;4.00;;;18.20;99.90;;;;;;5039058;28;20885;-59
2023/08/27 02:59:08;;;;;;;3.90;3.50;;;18.30;99.90;;;;;;5039167;28;21068;-58
2023/08/27 03:01:34;;;;;;;4.70;3.00;;;18.30;99.90;;;;;;5039010;28;20909;-61
2023/08/27 03:04:03;;;;;;;7.40;3.23;;;18.20;99.90;;;;;;5038615;28;20444;-60
2023/08/27 03:06:30;;;;;;;6.60;3.53;;;18.20;99.90;;;;;;5039172;28;20899;-59
2023/08/27 03:08:57;;;;;;;4.37;3.70;;;18.20;99.90;;;;;;5037966;28;20548;-60
2023/08/27 03:11:23;;;;;;;3.70;3.10;;;18.20;99.90;;;;;;5038612;28;20940;-57
2023/08/27 03:13:52;;;;;;;3.80;3.03;;;18.30;99.90;;;;;;5038633;28;20517;-60
2023/08/27 03:16:19;;;;;;;4.10;3.23;;;18.20;99.90;;;;;;5038808;28;20444;-60
2023/08/27 03:18:47;;;;;;;3.83;2.80;;;18.20;99.90;;;;;;5038540;28;20579;-61
2023/08/27 03:21:17;;;;;;;7.03;3.73;;;18.20;99.90;;;;;;5039192;28;20544;-58
2023/08/27 03:23:44;;;;;;;6.63;4.37;;;18.20;99.90;;;;;;5038332;28;20559;-61
2023/08/27 03:26:11;;;;;;;6.13;2.90;;;18.20;99.90;;;;;;5037973;28;20533;-60
2023/08/27 03:28:37;;;;;;;6.33;3.60;;;18.20;99.90;;;;;;5038348;28;20530;-59
2023/08/27 03:31:05;;;;;;;3.60;2.97;;;18.10;99.90;;;;;;5038429;28;20483;-60
2023/08/27 03:33:32;;;;;;;4.30;3.47;;;18.20;99.90;;;;;;5038683;28;20491;-59
2023/08/27 03:35:59;;;;;;;5.50;3.60;;;18.20;99.90;;;;;;5038799;28;20440;-61
2023/08/27 03:38:28;;;;;;;8.30;3.50;;;18.20;99.90;;;;;;5038329;28;20586;-61
2023/08/27 03:40:54;;;;;;;3.63;3.07;;;18.10;99.90;;;;;;5038399;28;20534;-61
2023/08/27 03:43:22;;;;;;;7.00;3.53;;;18.10;99.90;;;;;;5038648;28;20973;-60
2023/08/27 03:45:48;;;;;;;3.00;2.70;;;18.20;99.90;;;;;;5038289;28;20440;-59
2023/08/27 03:48:18;;;;;;;6.33;4.30;;;18.10;99.90;;;;;;5038482;28;20564;-61
2023/08/27 03:50:46;;;;;;;4.20;3.27;;;18.20;99.90;;;;;;5038743;28;20539;-60
2023/08/27 03:53:13;;;;;;;6.20;3.33;;;18.10;99.90;;;;;;5039234;28;20559;-58
2023/08/27 03:55:41;;;;;;;4.80;3.93;;;18.10;99.90;;;;;;5039135;28;20468;-60
2023/08/27 03:58:09;;;;;;;4.97;3.73;;;18.20;99.90;;;;;;5038273;28;20526;-60
2023/08/27 04:00:36;;;;;;;7.60;4.83;;;18.30;99.90;;;;;;5038196;28;20913;-60
2023/08/27 04:03:04;;;;;;;8.20;5.00;;;18.40;99.90;;;;;;5039618;28;20533;-60
2023/08/27 04:05:31;;;;;;;5.80;4.23;;;18.40;99.90;;;;;;5042215;28;20440;-61
2023/08/27 04:07:58;;;;;;;5.87;4.33;;;18.40;99.90;;;;;;5042679;28;20539;-61
2023/08/27 04:10:25;;;;;;;5.60;4.23;;;18.40;99.90;;;;;;5042060;28;20467;-60
2023/08/27 04:12:55;;;;;;;7.30;5.50;;;18.40;99.90;;;;;;5042229;28;20933;-60
2023/08/27 04:15:22;;;;;;;6.47;5.33;;;18.50;99.90;;;;;;5042415;28;20466;-60
2023/08/27 04:17:52;;;;;;;8.27;5.20;;;18.50;99.90;;;;;;5041911;28;20519;-61
2023/08/27 04:20:19;;;;;;;4.97;4.47;;;18.50;99.90;;;;;;5042469;28;20476;-60
2023/08/27 04:22:49;;;;;;;5.60;4.60;;;18.50;99.90;;;;;;5042351;28;20535;-60
2023/08/27 04:25:18;;;;;;;5.70;4.07;;;18.50;99.90;;;;;;5042185;28;20486;-60
2023/08/27 04:27:45;;;;;;;5.23;4.70;;;18.50;99.90;;;;;;5042036;28;20451;-60
2023/08/27 04:30:14;;;;;;;4.93;4.20;;;18.50;99.90;;;;;;5041712;28;20503;-60
2023/08/27 04:32:43;;;;;;;6.17;4.40;;;18.60;99.90;;;;;;5042574;28;20480;-61
2023/08/27 04:35:09;;;;;;;6.37;5.67;;;18.60;99.90;;;;;;5042454;28;20518;-58
2023/08/27 04:37:36;;;;;;;9.47;5.57;;;18.60;99.90;;;;;;5041653;28;20945;-60
2023/08/27 04:40:05;;;;;;;10.03;7.37;;;18.60;99.90;;;;;;5041952;28;20464;-61
2023/08/27 04:42:32;;;;;;;6.33;5.07;;;18.60;99.90;;;;;;5042035;28;20510;-60
2023/08/27 04:44:58;;;;;;;5.70;4.63;;;18.60;99.90;;;;;;5041828;28;20980;-60
2023/08/27 04:47:33;;;;;;;6.07;4.83;;;18.60;99.90;;;;;;5041346;28;20500;-60
2023/08/27 04:50:00;;;;;;;6.63;4.97;;;18.60;99.90;;;;;;5041757;28;20539;-60
2023/08/27 04:52:29;;;;;;;8.77;5.53;;;18.60;99.90;;;;;;5042088;28;20483;-59
2023/08/27 04:54:56;;;;;;;6.17;5.10;;;18.60;99.90;;;;;;5041260;28;20941;-59
2023/08/27 04:57:25;;;;;;;6.50;5.70;;;18.60;99.90;;;;;;5041556;28;20463;-57
2023/08/27 04:59:52;;;;;;;5.60;5.10;;;18.60;99.90;;;;;;5041386;28;20587;-61
2023/08/27 05:02:19;;;;;;;5.93;4.67;;;18.60;99.90;;;;;;5040842;28;20495;-60
2023/08/27 05:04:47;;;;;;;6.63;5.10;;;18.60;99.90;;;;;;5041117;28;21019;-60
2023/08/27 05:07:14;;;;;;;6.57;5.50;;;18.70;99.90;;;;;;5041271;28;20527;-59
2023/08/27 05:09:40;;;;;;;4.83;4.33;;;18.70;99.90;;;;;;5040538;28;20468;-59
2023/08/27 05:12:09;;;;;;;5.47;4.87;;;18.70;99.90;;;;;;5041176;28;20468;-61
2023/08/27 05:14:36;;;;;;;5.27;4.77;;;18.70;99.90;;;;;;5040742;28;20448;-60
2023/08/27 05:17:06;;;;;;;5.77;5.17;;;18.80;99.90;;;;;;5040593;28;20462;-57
2023/08/27 05:19:39;;;;;;;7.87;4.50;;;18.80;99.90;;;;;;5040939;28;20480;-61
2023/08/27 05:22:07;;;;;;;6.77;5.30;;;18.80;99.90;;;;;;5041180;28;20472;-60
2023/08/27 05:24:34;;;;;;;6.50;4.40;;;18.80;99.90;;;;;;5041271;28;20511;-60
2023/08/27 05:27:02;;;;;;;5.57;4.90;;;18.80;99.90;;;;;;5040810;28;20770;-60
2023/08/27 05:29:29;;;;;;;4.20;3.80;;;18.90;99.90;;;;;;5040505;28;20456;-60
2023/08/27 05:31:56;;;;;;;6.00;4.87;;;18.90;99.90;;;;;;5040364;28;20512;-61
2023/08/27 05:34:24;;;;;;;5.70;4.20;;;19.00;99.90;;;;;;5040200;28;20539;-59
2023/08/27 05:36:50;;;;;;;4.97;4.47;;;19.00;99.90;;;;;;5040533;28;20783;-60
2023/08/27 05:39:22;;;;;;;4.77;4.17;;;19.00;99.90;;;;;;5040797;28;20494;-60
2023/08/27 05:41:48;;;;;;;7.77;4.93;;;19.00;99.90;;;;;;5040179;28;20451;-59
2023/08/27 05:44:15;;;;;;;6.03;4.90;;;19.10;99.90;;;;;;5040055;28;20475;-59
2023/08/27 05:46:42;;;;;;;8.10;5.10;;;19.10;99.90;;;;;;5039885;28;20484;-60
2023/08/27 05:49:09;;;;;;;6.20;4.40;;;19.10;99.90;;;;;;5040031;28;20504;-59
2023/08/27 05:51:36;;;;;;;6.13;5.60;;;19.20;99.90;;;;;;5039810;28;20528;-58
2023/08/27 05:54:03;;;;;;;5.00;4.30;;;19.30;99.90;;;;;;5040006;28;20518;-60
2023/08/27 05:56:31;;;;;;;6.13;5.53;;;19.40;99.90;;;;;;5039548;28;20472;-59
2023/08/27 05:58:58;;;;;;;4.57;3.90;;;19.40;99.90;;;;;;5039849;28;20556;-59
2023/08/27 06:01:25;;;;;;;5.50;4.30;;;19.40;99.90;;;;;;5039432;28;21075;-59
2023/08/27 06:03:52;;;;;;;5.43;4.50;;;19.30;99.90;;;;;;5039239;28;20558;-60
2023/08/27 06:06:19;;;;;;;9.20;4.80;;;19.40;99.90;;;;;;5038826;28;20464;-59
2023/08/27 06:08:46;;;;;;;5.87;5.37;;;19.40;99.90;;;;;;5039734;28;20488;-60
2023/08/27 06:11:13;;;;;;;4.43;3.90;;;19.40;99.90;;;;;;5039279;28;20546;-59
2023/08/27 06:13:43;;;;;;;5.37;4.40;;;19.50;99.90;;;;;;5039032;28;20468;-60
2023/08/27 06:16:10;;;;;;;5.80;4.40;;;19.50;99.90;;;;;;5038956;28;20499;-60
2023/08/27 06:18:37;;;;;;;5.03;4.27;;;19.50;99.90;;;;;;5039796;28;20556;-60
2023/08/27 06:21:04;;;;;;;9.03;4.87;;;19.50;99.90;;;;;;5043796;28;20523;-60
2023/08/27 06:23:31;;;;;;;6.30;4.77;;;19.60;99.90;;;;;;5043357;28;20504;-60
2023/08/27 06:26:03;;;;;;;9.10;4.90;;;19.60;99.90;;;;;;5042848;28;20451;-60
2023/08/27 06:28:30;;;;;;;10.67;4.77;;;19.70;99.90;;;;;;5041159;28;20435;-60
2023/08/27 06:30:59;;;;;;;5.90;4.03;;;19.70;99.90;;;;;;5042422;28;20916;-61
2023/08/27 06:33:26;;;;;;;4.43;4.03;;;19.70;99.90;;;;;;5043230;28;20505;-61
2023/08/27 06:35:53;;;;;;;5.50;4.40;;;19.70;99.90;;;;;;5043067;28;20476;-60
2023/08/27 06:38:20;;;;;;;9.43;5.33;;;19.80;99.90;;;;;;5043015;28;20447;-58
2023/08/27 06:40:46;;;;;;;6.33;4.07;;;19.80;99.90;;;;;;5042613;28;20444;-60
2023/08/27 06:43:14;;;;;;;7.63;4.20;;;19.80;99.90;;;;;;5040405;28;20515;-61
2023/08/27 06:45:41;;;;;;;4.00;3.60;;;19.90;99.90;;;;;;5041940;28;20514;-61
2023/08/27 06:48:09;;;;;;;5.67;4.27;;;19.90;99.90;;;;;;5042691;28;20817;-61
2023/08/27 06:50:36;;;;;;;7.30;5.70;;;19.90;99.90;;;;;;5042042;28;20523;-59
2023/08/27 06:53:04;;;;;;;6.67;4.17;;;20.00;99.90;;;;;;5042204;28;20486;-61
2023/08/27 06:55:31;;;;;;;5.73;4.20;;;20.10;99.90;;;;;;5042717;28;20459;-62
2023/08/27 06:57:58;;;;;;;4.60;4.10;;;20.20;99.90;;;;;;5042592;28;20503;-59
2023/08/27 07:00:25;;;;;;;4.10;3.57;;;20.30;99.90;;;;;;5042100;28;20488;-62
2023/08/27 07:02:52;;;;;;;3.77;3.47;;;20.40;99.90;;;;;;5042950;28;20464;-61
2023/08/27 07:05:21;;;;;;;5.20;3.70;;;20.40;99.90;;;;;;5042591;28;20507;-60
2023/08/27 07:07:48;;;;;;;4.53;4.10;;;20.40;99.90;;;;;;5042280;28;20471;-59
2023/08/27 07:10:15;;;;;;;6.93;3.93;;;20.40;99.90;;;;;;5041926;28;20456;-60
2023/08/27 07:12:42;;;;;;;8.13;3.93;;;20.40;99.90;;;;;;5041601;28;20900;-60
2023/08/27 07:15:09;;;;;;;7.63;4.80;;;20.30;99.90;;;;;;5042246;28;20490;-62
2023/08/27 07:17:38;;;;;;;5.50;3.87;;;20.30;99.90;;;;;;5041956;28;20507;-61
2023/08/27 07:20:07;;;;;;;6.33;3.57;;;20.30;99.90;;;;;;5042057;28;20468;-62
2023/08/27 07:22:35;;;;;;;4.70;3.23;;;20.30;99.90;;;;;;5041543;28;20468;-62
2023/08/27 07:25:02;;;;;;;4.70;3.77;;;20.40;99.90;;;;;;5041866;28;20444;-60
2023/08/27 07:27:29;;;;;;;4.70;3.80;;;20.50;99.90;;;;;;5041948;28;20452;-61
2023/08/27 07:29:56;;;;;;;12.40;3.10;;;20.60;99.90;;;;;;5041125;28;20531;-59
2023/08/27 07:32:23;;;;;;;3.60;3.30;;;20.70;99.90;;;;;;5040963;28;20547;-62
2023/08/27 07:34:50;;;;;;;3.93;2.70;;;20.70;99.90;;;;;;5042108;28;20535;-60
2023/08/27 07:37:17;;;;;;;8.10;4.63;;;20.80;99.90;;;;;;5042172;28;20456;-60
2023/08/27 07:39:48;;;;;;;7.63;3.63;;;20.90;99.90;;;;;;5045774;28;20479;-60
2023/08/27 07:42:15;;;;;;;7.90;3.23;;;21.00;99.90;;;;;;5045742;28;20455;-60
2023/08/27 07:44:41;;;;;;;3.03;2.80;;;21.20;99.90;;;;;;5045909;28;20479;-61
2023/08/27 07:47:08;;;;;;;5.50;3.70;;;21.40;99.90;;;;;;5045829;28;20480;-60
2023/08/27 07:49:35;;;;;;;15.10;8.93;;;21.60;99.90;;;;;;5045163;28;20479;-61
2023/08/27 07:52:02;;;;;;;8.50;6.50;;;21.70;99.90;;;;;;5045189;28;20471;-59
2023/08/27 07:54:29;;;;;;;6.80;3.67;;;21.90;99.90;;;;;;5045102;28;20956;-60
2023/08/27 07:56:57;;;;;;;5.30;3.20;;;22.10;99.90;;;;;;5044532;28;20519;-60
2023/08/27 07:59:24;;;;;;;5.10;4.13;;;22.30;99.90;;;;;;5043954;28;20591;-60
2023/08/27 08:01:51;;;;;;;3.27;2.93;;;22.50;99.90;;;;;;5043854;28;20498;-61
2023/08/27 08:04:18;;;;;;;11.40;3.73;;;22.70;99.90;;;;;;5043878;28;20499;-61
2023/08/27 08:06:48;;;;;;;5.67;3.27;;;23.10;99.90;;;;;;5042647;28;20473;-61
2023/08/27 08:09:15;;;;;;;3.50;3.20;;;23.60;99.90;;;;;;5042737;28;20464;-61
2023/08/27 08:11:42;;;;;;;3.67;2.87;;;23.90;99.90;;;;;;5045214;28;20456;-60
2023/08/27 08:14:10;;;;;;;4.47;3.27;;;24.00;99.90;;;;;;5042667;28;20464;-60
2023/08/27 08:16:37;;;;;;;13.80;3.40;;;24.20;99.90;;;;;;5042594;28;20501;-61
2023/08/27 08:19:04;;;;;;;3.70;2.87;;;24.50;99.90;;;;;;5042146;28;20514;-60
2023/08/27 08:21:31;;;;;;;7.43;3.30;;;24.60;99.90;;;;;;5042366;28;20696;-62
2023/08/27 08:23:58;;;;;;;3.07;2.77;;;24.70;99.90;;;;;;5042723;28;20506;-60
2023/08/27 08:26:25;;;;;;;6.47;2.90;;;24.60;99.90;;;;;;5042021;28;20531;-60
2023/08/27 08:28:52;;;;;;;4.30;3.10;;;24.50;99.90;;;;;;5042102;28;21001;-60
2023/08/27 08:31:20;;;;;;;3.43;3.10;;;24.20;99.90;;;;;;5042008;28;20471;-61
2023/08/27 08:33:47;;;;;;;3.37;2.77;;;24.00;99.90;;;;;;5042832;28;20828;-60
2023/08/27 08:36:14;;;;;;;4.10;3.37;;;23.80;99.90;;;;;;5042448;28;20928;-63
2023/08/27 08:38:44;;;;;;;4.47;2.90;;;23.70;99.90;;;;;;5041966;28;20454;-60
2023/08/27 08:41:12;;;;;;;3.03;2.73;;;23.50;99.90;;;;;;5041495;28;20515;-61
2023/08/27 08:43:43;;;;;;;3.73;2.67;;;23.40;99.90;;;;;;5042457;28;20477;-56
2023/08/27 08:46:13;;;;;;;4.30;3.30;;;23.30;99.90;;;;;;5042567;28;20472;-61
2023/08/27 08:48:42;;;;;;;4.67;3.30;;;23.30;99.90;;;;;;5040040;28;20448;-61
2023/08/27 08:51:11;;;;;;;6.47;2.63;;;23.10;99.90;;;;;;5041912;28;20488;-60
2023/08/27 08:53:42;;;;;;;6.50;2.90;;;23.00;99.90;;;;;;5041684;28;20515;-61
2023/08/27 08:56:13;;;;;;;3.27;2.50;;;22.90;99.90;;;;;;5043416;28;20440;-60
2023/08/27 08:58:44;;;;;;;3.07;2.70;;;22.90;99.90;;;;;;5043863;28;20532;-60
2023/08/27 09:01:13;;;;;;;4.87;2.77;;;22.90;99.90;;;;;;5041615;28;20916;-61
2023/08/27 09:03:41;;;;;;;3.33;2.60;;;23.10;99.90;;;;;;5042071;28;20436;-62
2023/08/27 09:06:08;;;;;;;5.33;2.43;;;23.20;99.90;;;;;;5041343;28;20428;-58
2023/08/27 09:08:37;;;;;;;4.13;2.83;;;23.40;99.90;;;;;;5042256;28;20516;-60
2023/08/27 09:11:04;;;;;;;7.13;2.70;;;23.40;99.90;;;;;;5039051;28;20531;-60
2023/08/27 09:13:32;;;;;;;4.00;2.63;;;23.40;99.90;;;;;;5038983;28;20463;-60
2023/08/27 09:15:58;;;;;;;2.80;2.43;;;23.30;99.90;;;;;;5039779;28;20472;-59
2023/08/27 09:18:26;;;;;;;6.70;3.00;;;23.30;99.90;;;;;;5041162;28;20436;-60
2023/08/27 09:20:54;;;;;;;4.20;2.63;;;23.20;99.90;;;;;;5040333;28;20512;-61
2023/08/27 09:23:24;;;;;;;3.27;2.47;;;23.10;99.90;;;;;;5027958;28;20448;-61
2023/08/27 09:25:53;;;;;;;2.63;2.30;;;22.90;99.90;;;;;;5040780;28;20571;-60
2023/08/27 09:28:23;;;;;;;5.60;2.50;;;22.80;99.90;;;;;;5040824;28;20452;-61
2023/08/27 09:30:49;;;;;;;3.93;2.50;;;22.80;99.90;;;;;;5040025;28;20990;-61
2023/08/27 09:33:16;;;;;;;3.30;2.60;;;22.70;99.90;;;;;;5040025;28;20897;-60
2023/08/27 09:35:43;;;;;;;4.00;2.77;;;22.60;99.90;;;;;;5040335;28;20767;-58
2023/08/27 09:38:14;;;;;;;3.73;2.70;;;22.60;99.90;;;;;;5040652;28;20488;-60
2023/08/27 09:40:42;;;;;;;3.70;2.50;;;22.60;99.90;;;;;;5040243;28;20873;-60
2023/08/27 09:43:10;;;;;;;7.27;3.07;;;22.60;99.90;;;;;;5039797;28;20487;-60
2023/08/27 09:45:38;;;;;;;2.80;2.30;;;22.60;99.90;;;;;;5040435;28;20522;-59
2023/08/27 09:48:05;;;;;;;2.63;2.43;;;22.60;99.90;;;;;;5040523;28;20500;-61
2023/08/27 09:50:33;;;;;;;2.33;2.13;;;22.50;99.90;;;;;;5040578;28;20928;-61
2023/08/27 09:53:07;;;;;;;3.87;2.50;;;22.50;99.90;;;;;;5039662;28;20511;-59
2023/08/27 09:55:36;;;;;;;2.80;2.50;;;22.40;99.90;;;;;;5026114;28;20522;-61
2023/08/27 09:58:04;;;;;;;3.10;2.30;;;22.40;99.90;;;;;;5040429;28;20428;-60
2023/08/27 10:00:31;;;;;;;3.77;3.10;;;22.40;99.90;;;;;;5039199;28;20476;-57
2023/08/27 10:02:58;;;;;;;5.67;2.87;;;22.60;99.90;;;;;;5040443;28;20472;-60
2023/08/27 10:05:27;;;;;;;2.63;2.40;;;22.70;99.90;;;;;;5044893;28;20440;-60
2023/08/27 10:07:59;;;;;;;2.50;2.20;;;23.00;99.90;;;;;;5047274;28;20464;-59
2023/08/27 10:10:27;;;;;;;2.47;2.17;;;23.10;99.90;;;;;;5042602;28;20436;-59
2023/08/27 10:12:56;;;;;;;2.50;2.20;;;23.20;99.90;;;;;;5047089;28;20441;-59
2023/08/27 10:15:24;;;;;;;4.60;2.63;;;23.40;99.90;;;;;;5043699;28;20490;-62
2023/08/27 10:17:53;;;;;;;2.57;2.00;;;23.50;99.90;;;;;;5047324;28;20468;-61
2023/08/27 10:20:23;;;;;;;1.97;1.80;;;23.60;99.90;;;;;;5047206;28;20478;-58
2023/08/27 10:22:50;;;;;;;2.90;2.27;;;25.20;99.90;;;;;;5046838;28;20460;-61
2023/08/27 10:25:18;;;;;;;2.50;2.30;;;23.90;99.90;;;;;;5045954;28;20754;-60
2023/08/27 10:27:48;;;;;;;7.43;2.50;;;24.10;99.90;;;;;;5043980;28;20833;-62
2023/08/27 10:30:19;;;;;;;2.27;2.07;;;24.10;99.90;;;;;;5046691;28;20970;-60
2023/08/27 10:32:46;;;;;;;2.90;2.30;;;24.00;99.90;;;;;;5046643;28;20921;-60
2023/08/27 10:35:14;;;;;;;3.40;2.60;;;23.90;99.90;;;;;;5045800;28;20457;-60
2023/08/27 10:37:47;;;;;;;5.70;2.97;;;24.00;99.90;;;;;;5046057;28;20463;-60
2023/08/27 10:40:16;;;;;;;2.60;2.40;;;23.90;99.90;;;;;;5046016;28;20468;-60
2023/08/27 10:42:46;;;;;;;3.63;2.87;;;23.80;99.90;;;;;;5043760;28;20476;-61
2023/08/27 10:45:15;;;;;;;2.50;2.20;;;23.70;99.90;;;;;;5045766;28;20436;-59
2023/08/27 10:47:43;;;;;;;4.97;2.20;;;23.60;99.90;;;;;;5045907;28;20571;-59
2023/08/27 10:50:21;;;;;;;3.23;2.40;;;23.50;99.90;;;;;;5046385;28;20436;-58
2023/08/27 10:52:50;;;;;;;4.07;2.50;;;23.50;99.90;;;;;;5045712;28;20480;-59
2023/08/27 10:55:21;;;;;;;4.60;2.17;;;23.50;99.90;;;;;;5044888;28;20464;-59
2023/08/27 10:57:48;;;;;;;6.37;2.30;;;23.40;99.90;;;;;;5045898;28;20468;-61
2023/08/27 11:00:15;;;;;;;4.80;3.00;;;23.40;99.90;;;;;;5045706;28;20472;-60
2023/08/27 11:03:13;;;;;;;3.70;2.37;;;23.40;99.90;;;;;;5046520;28;20464;-61
2023/08/27 11:05:40;;;;;;;6.73;3.13;;;23.60;99.90;;;;;;5027459;28;20479;-57
2023/08/27 11:08:15;;;;;;;3.93;3.00;;;23.70;99.90;;;;;;5044807;28;20480;-61
2023/08/27 11:10:43;;;;;;;2.70;2.47;;;23.90;99.90;;;;;;5046361;28;20508;-61
2023/08/27 11:13:35;;;;;;;3.30;2.60;;;24.00;99.90;;;;;;5045136;28;20540;-58
2023/08/27 11:16:08;;;;;;;4.17;2.37;;;23.90;99.90;;;;;;5045451;28;20436;-58
2023/08/27 11:18:48;;;;;;;3.63;3.00;;;23.90;99.90;;;;;;5045626;28;20543;-59
2023/08/27 11:21:22;;;;;;;4.27;2.80;;;23.80;99.90;;;;;;5044176;28;20503;-58
2023/08/27 11:24:16;;;;;;;4.83;2.53;;;23.70;99.90;;;;;;5044569;28;20472;-62
2023/08/27 11:26:44;;;;;;;4.37;2.90;;;23.60;99.90;;;;;;5042324;28;20435;-60
2023/08/27 11:29:12;;;;;;;5.60;2.63;;;23.50;99.90;;;;;;5044943;28;20515;-59
2023/08/27 11:31:40;;;;;;;3.23;2.80;;;23.30;99.90;;;;;;5042456;28;20460;-61
2023/08/27 11:34:11;;;;;;;4.33;3.70;;;23.20;99.90;;;;;;5044155;28;20464;-60
2023/08/27 11:36:39;;;;;;;5.57;2.90;;;22.10;99.90;;;;;;5044064;28;20471;-60
2023/08/27 11:39:07;;;;;;;7.77;3.37;;;24.00;99.90;;;;;;5045359;28;20496;-62
2023/08/27 11:41:36;;;;;;;4.23;2.80;;;23.30;99.90;;;;;;5046778;28;20479;-61
2023/08/27 11:44:03;;;;;;;6.30;3.20;;;23.30;99.90;;;;;;5045046;28;20462;-60
2023/08/27 11:46:30;;;;;;;3.60;3.00;;;23.30;99.90;;;;;;5026712;28;20532;-60
2023/08/27 11:48:57;;;;;;;5.07;2.70;;;23.20;99.90;;;;;;5044812;28;20456;-61
2023/08/27 11:51:26;;;;;;;3.40;2.73;;;23.20;99.90;;;;;;5046143;28;20432;-60
2023/08/27 11:53:53;;;;;;;5.30;4.17;;;23.10;99.90;;;;;;5045579;28;20456;-60
2023/08/27 11:56:21;;;;;;;4.30;2.80;;;23.10;99.90;;;;;;5045453;28;20503;-60
2023/08/27 11:58:51;;;;;;;5.90;3.60;;;23.10;99.90;;;;;;5046074;28;20471;-62
2023/08/27 12:01:19;;;;;;;4.63;3.20;;;23.10;99.90;;;;;;5046442;28;20495;-58
2023/08/27 12:03:48;;;;;;;2.63;2.43;;;23.00;99.90;;;;;;5046543;28;20467;-61
2023/08/27 12:06:20;;;;;;;4.40;2.50;;;23.00;99.90;;;;;;5046434;28;20447;-59
2023/08/27 12:08:53;;;;;;;3.87;3.47;;;23.10;99.90;;;;;;5046449;28;20440;-59
2023/08/27 12:11:23;;;;;;;3.90;2.30;;;23.10;99.90;;;;;;5046713;28;20479;-58
2023/08/27 12:13:53;;;;;;;3.27;2.63;;;23.10;99.90;;;;;;5044131;28;20560;-60
2023/08/27 12:16:28;;;;;;;4.23;2.37;;;23.20;99.90;;;;;;5045841;28;20951;-60
2023/08/27 12:19:01;;;;;;;4.47;3.83;;;23.30;99.90;;;;;;5045953;28;20467;-63
2023/08/27 12:21:28;;;;;;;4.27;2.87;;;23.40;99.90;;;;;;5046583;28;20472;-57
2023/08/27 12:23:56;;;;;;;2.80;2.53;;;23.50;99.90;;;;;;5047486;28;20460;-57
2023/08/27 12:26:23;;;;;;;3.27;2.57;;;23.50;99.90;;;;;;5049929;28;20454;-60
2023/08/27 12:28:53;;;;;;;2.47;2.27;;;23.50;99.90;;;;;;5049685;28;20467;-61
2023/08/27 12:31:24;;;;;;;2.80;2.10;;;23.40;99.90;;;;;;5049676;28;20917;-60
2023/08/27 12:33:56;;;;;;;1.97;1.87;;;23.40;99.90;;;;;;5048097;28;20444;-61
2023/08/27 12:36:24;;;;;;;7.17;2.47;;;23.40;99.90;;;;;;5047828;28;20445;-58
2023/08/27 12:38:51;;;;;;;3.50;2.40;;;23.40;99.90;;;;;;5048223;28;20466;-56
2023/08/27 12:41:19;;;;;;;6.90;2.43;;;23.20;99.90;;;;;;5048283;28;20511;-60
2023/08/27 12:43:46;;;;;;;3.57;2.40;;;23.10;99.90;;;;;;5049888;28;20496;-61
2023/08/27 12:46:13;;;;;;;5.90;2.97;;;23.00;99.90;;;;;;5049510;28;20479;-59
2023/08/27 12:48:40;;;;;;;3.30;3.00;;;22.90;99.90;;;;;;5049304;28;20483;-60
2023/08/27 12:51:07;;;;;;;3.93;1.97;;;22.90;99.90;;;;;;5048083;28;20471;-59